Terminal Aerodrome Forecast
Issued by NWS

Home | Current Version | Previous Version | Text Only | Print | Product List | Glossary Off
Versions: 1 2 3 4 5 6 7 8 9 10 11 12 13 14 15 16 17 18 19 20 21 22 23

795
FTUS43 KABR 132144 AAA
TAFMBG
TAF AMD
KMBG 132144Z 1322/1418 14017KT 3SM -SN OVC015
     FM140000 15013KT 1SM -SN OVC010
     FM140600 16009KT 3SM -SN OVC015
     FM140900 29006KT P6SM VCSH OVC010
     FM141200 31010KT P6SM BKN020
     FM141500 30009KT P6SM SCT035=

USA.gov is the U.S. government's official web portal to all federal, state and local government web resources and services.